Brussels, Belgium

9:27 AM CEST on July 31, 2016 (GMT +0200)
Brussels National | | Change Station

Elev 190 ft 50.90 °N, 4.53 °E | Updated 7 minutes ago

Mostly Cloudy
Mostly Cloudy
63 °F
Feels Like 63 °F
N
8
Wind Variable Wind from NW

Today
High -- | Low -- °F
--% Chance of Precip.
Yesterday
High -- | Low -- °F
Precip. -- in
Pressure 29.95 in
Visibility 4.3 miles
Clouds Few 1000 ft
Mostly Cloudy 2400 ft
Dew Point 59 °F
Humidity 88%
Rainfall 0.00 in
Snow Depth Not available.
6:06 AM 9:28 PM
Waning Crescent, 8% visible
METAR EBBR 310720Z 31007KT 7000 FEW010 BKN024 17/15 Q1014 NOSIG
Pressure 29.95 in
Visibility 4.3 miles
Clouds Few 1000 ft
Mostly Cloudy 2400 ft
Dew Point 59 °F
Humidity 88%
Rainfall 0.00 in
Snow Depth Not available.
6:06 AM 9:28 PM
Waning Crescent, 8% visible
METAR EBBR 310720Z 31007KT 7000 FEW010 BKN024 17/15 Q1014 NOSIG

10-Day Weather Forecast

×

Almanac

Astronomy

Jul. 31, 2016 Rise Set
Actual Time
Civil Twilight
Nautical Twilight
Astronomical Twilight
Moon
Length of Visible Light
Length of Day
Tomorrow will be .
, % of the Moon is Illuminated

Today's Extremes

Country Highs Country Lows

Community

WunderPhotos

Upload Photos

1,928,768 photos uploaded!

WunderBlog® & News

Nearby

Air Quality

  Air Quality AQ Index Pollutant
Not available.

Snow Depth

Station Depth Elevation

Earthquake Activity

City Distance Mag. Time & Date
Minimum magnitude displayed is 2.5.

Coastal Water Temperatures

Place Temperature

Stations

Nearby Weather Stations

Station Location Temp. Windchill Dew Point Humidity Wind Precip. Elev Updated Type